Terminal Aerodrome Forecast
Issued by NWS Wilmington, OH

Current Version | Previous Version | Graphics & Text | Print | Product List | Glossary On
Versions: 1 2 3 4 5 6 7 8 9 10 11 12 13 14 15 16
000
FTUS41 KILN 220500 RRA
TAFCMH
TAF
KCMH 220547Z 2206/2306 22004KT P6SM SKC
     FM221300 26009KT P6SM SCT040
     FM221900 33011G16KT P6SM SCT050 SCT250
     FM230100 05005KT P6SM SKC=

USA.gov is the U.S. government's official web portal to all federal, state and local government web resources and services.